sensor_id;sensor_type;location;lat;lon;timestamp;P1;durP1;ratioP1;P2;durP2;ratioP2
8913;SDS011;4492;48.736;9.092;2023-03-17T00:02:17;5.17;;;3.30;;
8913;SDS011;4492;48.736;9.092;2023-03-17T00:04:43;8.03;;;3.77;;
8913;SDS011;4492;48.736;9.092;2023-03-17T00:07:09;6.47;;;3.50;;
8913;SDS011;4492;48.736;9.092;2023-03-17T00:09:38;4.23;;;3.23;;
8913;SDS011;4492;48.736;9.092;2023-03-17T00:12:08;6.40;;;3.30;;
8913;SDS011;4492;48.736;9.092;2023-03-17T00:14:35;6.03;;;3.90;;
8913;SDS011;4492;48.736;9.092;2023-03-17T00:17:01;6.10;;;3.57;;
8913;SDS011;4492;48.736;9.092;2023-03-17T00:19:30;5.87;;;3.80;;
8913;SDS011;4492;48.736;9.092;2023-03-17T00:21:59;4.30;;;3.30;;
8913;SDS011;4492;48.736;9.092;2023-03-17T00:24:25;5.20;;;3.40;;
8913;SDS011;4492;48.736;9.092;2023-03-17T00:26:51;5.47;;;3.60;;
8913;SDS011;4492;48.736;9.092;2023-03-17T00:29:17;3.50;;;2.80;;
8913;SDS011;4492;48.736;9.092;2023-03-17T00:31:43;5.40;;;3.23;;
8913;SDS011;4492;48.736;9.092;2023-03-17T00:34:10;3.43;;;3.13;;
8913;SDS011;4492;48.736;9.092;2023-03-17T00:36:39;5.10;;;3.13;;
8913;SDS011;4492;48.736;9.092;2023-03-17T00:39:09;3.37;;;2.97;;
8913;SDS011;4492;48.736;9.092;2023-03-17T00:41:38;3.50;;;3.00;;
8913;SDS011;4492;48.736;9.092;2023-03-17T00:44:03;4.13;;;3.23;;
8913;SDS011;4492;48.736;9.092;2023-03-17T00:46:29;4.50;;;3.10;;
8913;SDS011;4492;48.736;9.092;2023-03-17T00:49:00;5.90;;;3.50;;
8913;SDS011;4492;48.736;9.092;2023-03-17T00:51:39;4.97;;;3.37;;
8913;SDS011;4492;48.736;9.092;2023-03-17T00:54:05;4.83;;;3.10;;
8913;SDS011;4492;48.736;9.092;2023-03-17T00:56:31;5.50;;;3.03;;
8913;SDS011;4492;48.736;9.092;2023-03-17T00:58:57;4.10;;;2.93;;
8913;SDS011;4492;48.736;9.092;2023-03-17T01:01:22;3.60;;;3.03;;
8913;SDS011;4492;48.736;9.092;2023-03-17T01:03:48;4.23;;;2.87;;
8913;SDS011;4492;48.736;9.092;2023-03-17T01:06:14;3.40;;;2.90;;
8913;SDS011;4492;48.736;9.092;2023-03-17T01:08:40;3.50;;;3.07;;
8913;SDS011;4492;48.736;9.092;2023-03-17T01:11:16;3.87;;;3.23;;
8913;SDS011;4492;48.736;9.092;2023-03-17T01:13:44;4.63;;;3.10;;
8913;SDS011;4492;48.736;9.092;2023-03-17T01:16:10;4.47;;;3.50;;
8913;SDS011;4492;48.736;9.092;2023-03-17T01:18:36;5.83;;;3.10;;
8913;SDS011;4492;48.736;9.092;2023-03-17T01:21:02;3.47;;;2.87;;
8913;SDS011;4492;48.736;9.092;2023-03-17T01:23:29;3.33;;;2.90;;
8913;SDS011;4492;48.736;9.092;2023-03-17T01:25:55;4.83;;;3.37;;
8913;SDS011;4492;48.736;9.092;2023-03-17T01:28:21;3.40;;;3.00;;
8913;SDS011;4492;48.736;9.092;2023-03-17T01:30:47;3.33;;;2.57;;
8913;SDS011;4492;48.736;9.092;2023-03-17T01:33:13;4.87;;;2.83;;
8913;SDS011;4492;48.736;9.092;2023-03-17T01:35:39;3.10;;;2.80;;
8913;SDS011;4492;48.736;9.092;2023-03-17T01:38:07;6.07;;;3.10;;
8913;SDS011;4492;48.736;9.092;2023-03-17T01:40:34;4.10;;;2.97;;
8913;SDS011;4492;48.736;9.092;2023-03-17T01:48:35;3.57;;;2.50;;
8913;SDS011;4492;48.736;9.092;2023-03-17T01:51:04;3.37;;;3.00;;
8913;SDS011;4492;48.736;9.092;2023-03-17T01:53:33;5.50;;;3.10;;
8913;SDS011;4492;48.736;9.092;2023-03-17T01:56:01;4.90;;;3.13;;
8913;SDS011;4492;48.736;9.092;2023-03-17T01:58:27;3.87;;;3.03;;
8913;SDS011;4492;48.736;9.092;2023-03-17T02:00:55;4.37;;;3.10;;
8913;SDS011;4492;48.736;9.092;2023-03-17T02:03:21;5.83;;;3.00;;
8913;SDS011;4492;48.736;9.092;2023-03-17T02:05:49;3.17;;;2.87;;
8913;SDS011;4492;48.736;9.092;2023-03-17T02:08:16;3.33;;;2.93;;
8913;SDS011;4492;48.736;9.092;2023-03-17T02:10:42;4.30;;;2.67;;
8913;SDS011;4492;48.736;9.092;2023-03-17T02:13:09;3.57;;;2.90;;
8913;SDS011;4492;48.736;9.092;2023-03-17T02:15:37;5.77;;;2.77;;
8913;SDS011;4492;48.736;9.092;2023-03-17T02:18:06;3.60;;;2.67;;
8913;SDS011;4492;48.736;9.092;2023-03-17T02:22:58;3.30;;;2.90;;
8913;SDS011;4492;48.736;9.092;2023-03-17T02:25:25;5.43;;;2.93;;
8913;SDS011;4492;48.736;9.092;2023-03-17T02:27:55;5.00;;;2.80;;
8913;SDS011;4492;48.736;9.092;2023-03-17T02:30:33;4.20;;;2.67;;
8913;SDS011;4492;48.736;9.092;2023-03-17T02:33:00;5.47;;;2.90;;
8913;SDS011;4492;48.736;9.092;2023-03-17T02:35:26;2.83;;;2.60;;
8913;SDS011;4492;48.736;9.092;2023-03-17T02:37:52;3.17;;;2.60;;
8913;SDS011;4492;48.736;9.092;2023-03-17T02:40:18;3.50;;;2.73;;
8913;SDS011;4492;48.736;9.092;2023-03-17T02:42:43;2.70;;;2.40;;
8913;SDS011;4492;48.736;9.092;2023-03-17T02:45:09;2.47;;;2.27;;
8913;SDS011;4492;48.736;9.092;2023-03-17T02:47:37;3.43;;;2.63;;
8913;SDS011;4492;48.736;9.092;2023-03-17T02:50:03;2.73;;;2.03;;
8913;SDS011;4492;48.736;9.092;2023-03-17T02:52:30;2.90;;;2.60;;
8913;SDS011;4492;48.736;9.092;2023-03-17T02:54:55;6.63;;;2.83;;
8913;SDS011;4492;48.736;9.092;2023-03-17T02:57:21;3.80;;;2.70;;
8913;SDS011;4492;48.736;9.092;2023-03-17T02:59:47;2.93;;;2.63;;
8913;SDS011;4492;48.736;9.092;2023-03-17T03:02:12;2.33;;;2.13;;
8913;SDS011;4492;48.736;9.092;2023-03-17T03:04:38;3.63;;;2.50;;
8913;SDS011;4492;48.736;9.092;2023-03-17T03:07:04;3.67;;;2.60;;
8913;SDS011;4492;48.736;9.092;2023-03-17T03:09:30;5.77;;;2.43;;
8913;SDS011;4492;48.736;9.092;2023-03-17T03:11:56;2.43;;;2.10;;
8913;SDS011;4492;48.736;9.092;2023-03-17T03:14:21;3.20;;;2.33;;
8913;SDS011;4492;48.736;9.092;2023-03-17T03:16:47;3.37;;;2.00;;
8913;SDS011;4492;48.736;9.092;2023-03-17T03:19:13;3.47;;;2.60;;
8913;SDS011;4492;48.736;9.092;2023-03-17T03:21:40;3.27;;;1.87;;
8913;SDS011;4492;48.736;9.092;2023-03-17T03:24:06;4.20;;;2.07;;
8913;SDS011;4492;48.736;9.092;2023-03-17T03:26:33;2.73;;;1.90;;
8913;SDS011;4492;48.736;9.092;2023-03-17T03:28:59;4.00;;;2.13;;
8913;SDS011;4492;48.736;9.092;2023-03-17T03:31:24;2.50;;;1.80;;
8913;SDS011;4492;48.736;9.092;2023-03-17T03:33:50;3.03;;;2.17;;
8913;SDS011;4492;48.736;9.092;2023-03-17T03:36:16;3.00;;;2.10;;
8913;SDS011;4492;48.736;9.092;2023-03-17T03:38:42;3.63;;;2.10;;
8913;SDS011;4492;48.736;9.092;2023-03-17T03:41:08;3.57;;;2.13;;
8913;SDS011;4492;48.736;9.092;2023-03-17T03:43:34;2.17;;;1.80;;
8913;SDS011;4492;48.736;9.092;2023-03-17T03:46:00;4.07;;;2.23;;
8913;SDS011;4492;48.736;9.092;2023-03-17T03:48:25;2.10;;;1.90;;
8913;SDS011;4492;48.736;9.092;2023-03-17T03:50:58;4.10;;;2.57;;
8913;SDS011;4492;48.736;9.092;2023-03-17T03:53:25;6.03;;;2.43;;
8913;SDS011;4492;48.736;9.092;2023-03-17T03:55:51;2.73;;;2.10;;
8913;SDS011;4492;48.736;9.092;2023-03-17T03:58:17;2.93;;;2.20;;
8913;SDS011;4492;48.736;9.092;2023-03-17T04:00:43;3.83;;;2.30;;
8913;SDS011;4492;48.736;9.092;2023-03-17T04:03:08;2.90;;;2.03;;
8913;SDS011;4492;48.736;9.092;2023-03-17T04:05:34;4.73;;;2.17;;
8913;SDS011;4492;48.736;9.092;2023-03-17T04:08:00;3.57;;;1.93;;
8913;SDS011;4492;48.736;9.092;2023-03-17T04:10:25;2.90;;;1.80;;
8913;SDS011;4492;48.736;9.092;2023-03-17T04:12:51;3.17;;;2.07;;
8913;SDS011;4492;48.736;9.092;2023-03-17T04:15:17;8.50;;;2.10;;
8913;SDS011;4492;48.736;9.092;2023-03-17T04:17:44;2.20;;;1.63;;
8913;SDS011;4492;48.736;9.092;2023-03-17T04:20:10;3.40;;;2.00;;
8913;SDS011;4492;48.736;9.092;2023-03-17T04:22:38;3.07;;;2.30;;
8913;SDS011;4492;48.736;9.092;2023-03-17T04:25:04;3.97;;;2.10;;
8913;SDS011;4492;48.736;9.092;2023-03-17T04:27:30;2.03;;;1.70;;
8913;SDS011;4492;48.736;9.092;2023-03-17T04:29:56;2.00;;;1.80;;
8913;SDS011;4492;48.736;9.092;2023-03-17T04:32:22;3.93;;;1.90;;
8913;SDS011;4492;48.736;9.092;2023-03-17T04:34:47;2.67;;;2.00;;
8913;SDS011;4492;48.736;9.092;2023-03-17T04:37:13;4.03;;;1.90;;
8913;SDS011;4492;48.736;9.092;2023-03-17T04:39:38;2.07;;;1.83;;
8913;SDS011;4492;48.736;9.092;2023-03-17T04:42:04;2.53;;;1.90;;
8913;SDS011;4492;48.736;9.092;2023-03-17T04:44:30;2.77;;;2.00;;
8913;SDS011;4492;48.736;9.092;2023-03-17T04:46:56;2.60;;;2.03;;
8913;SDS011;4492;48.736;9.092;2023-03-17T04:49:22;3.93;;;2.20;;
8913;SDS011;4492;48.736;9.092;2023-03-17T04:51:47;3.00;;;1.90;;
8913;SDS011;4492;48.736;9.092;2023-03-17T04:54:13;2.67;;;1.80;;
8913;SDS011;4492;48.736;9.092;2023-03-17T04:56:38;2.63;;;1.90;;
8913;SDS011;4492;48.736;9.092;2023-03-17T04:59:04;4.23;;;1.83;;
8913;SDS011;4492;48.736;9.092;2023-03-17T05:01:30;2.33;;;1.87;;
8913;SDS011;4492;48.736;9.092;2023-03-17T05:03:56;3.73;;;2.07;;
8913;SDS011;4492;48.736;9.092;2023-03-17T05:06:22;3.17;;;1.93;;
8913;SDS011;4492;48.736;9.092;2023-03-17T05:08:47;2.23;;;2.03;;
8913;SDS011;4492;48.736;9.092;2023-03-17T05:11:13;2.70;;;2.20;;
8913;SDS011;4492;48.736;9.092;2023-03-17T05:13:39;3.57;;;1.87;;
8913;SDS011;4492;48.736;9.092;2023-03-17T05:16:05;3.67;;;2.03;;
8913;SDS011;4492;48.736;9.092;2023-03-17T05:18:31;2.10;;;1.90;;
8913;SDS011;4492;48.736;9.092;2023-03-17T05:20:57;4.23;;;1.70;;
8913;SDS011;4492;48.736;9.092;2023-03-17T05:23:23;4.63;;;1.87;;
8913;SDS011;4492;48.736;9.092;2023-03-17T05:25:49;2.27;;;1.80;;
8913;SDS011;4492;48.736;9.092;2023-03-17T05:28:16;4.23;;;1.80;;
8913;SDS011;4492;48.736;9.092;2023-03-17T05:30:43;2.33;;;2.00;;
8913;SDS011;4492;48.736;9.092;2023-03-17T05:33:09;1.67;;;1.57;;
8913;SDS011;4492;48.736;9.092;2023-03-17T05:35:35;8.00;;;2.17;;
8913;SDS011;4492;48.736;9.092;2023-03-17T05:38:01;2.23;;;1.93;;
8913;SDS011;4492;48.736;9.092;2023-03-17T05:40:27;5.93;;;2.50;;
8913;SDS011;4492;48.736;9.092;2023-03-17T05:42:52;6.77;;;2.63;;
8913;SDS011;4492;48.736;9.092;2023-03-17T05:45:18;3.40;;;2.17;;
8913;SDS011;4492;48.736;9.092;2023-03-17T05:47:43;6.83;;;3.00;;
8913;SDS011;4492;48.736;9.092;2023-03-17T05:50:09;6.27;;;3.03;;
8913;SDS011;4492;48.736;9.092;2023-03-17T05:52:36;5.63;;;2.40;;
8913;SDS011;4492;48.736;9.092;2023-03-17T05:55:03;6.30;;;2.50;;
8913;SDS011;4492;48.736;9.092;2023-03-17T05:57:29;3.47;;;2.17;;
8913;SDS011;4492;48.736;9.092;2023-03-17T05:59:55;3.87;;;1.93;;
8913;SDS011;4492;48.736;9.092;2023-03-17T06:02:21;2.27;;;1.83;;
8913;SDS011;4492;48.736;9.092;2023-03-17T06:04:47;2.47;;;2.03;;
8913;SDS011;4492;48.736;9.092;2023-03-17T06:07:13;7.27;;;2.80;;
8913;SDS011;4492;48.736;9.092;2023-03-17T06:09:38;4.77;;;2.37;;
8913;SDS011;4492;48.736;9.092;2023-03-17T06:12:04;3.63;;;2.20;;
8913;SDS011;4492;48.736;9.092;2023-03-17T06:14:30;2.40;;;2.00;;
8913;SDS011;4492;48.736;9.092;2023-03-17T06:16:56;6.70;;;2.10;;
8913;SDS011;4492;48.736;9.092;2023-03-17T06:19:22;2.27;;;1.83;;
8913;SDS011;4492;48.736;9.092;2023-03-17T06:21:47;2.37;;;1.97;;
8913;SDS011;4492;48.736;9.092;2023-03-17T06:24:13;3.50;;;2.23;;
8913;SDS011;4492;48.736;9.092;2023-03-17T06:26:39;3.03;;;2.10;;
8913;SDS011;4492;48.736;9.092;2023-03-17T06:29:05;4.80;;;1.90;;
8913;SDS011;4492;48.736;9.092;2023-03-17T06:31:34;3.80;;;2.20;;
8913;SDS011;4492;48.736;9.092;2023-03-17T06:34:00;3.77;;;2.40;;
8913;SDS011;4492;48.736;9.092;2023-03-17T06:36:27;5.87;;;1.97;;
8913;SDS011;4492;48.736;9.092;2023-03-17T06:38:53;4.37;;;2.30;;
8913;SDS011;4492;48.736;9.092;2023-03-17T06:41:18;3.67;;;2.40;;
8913;SDS011;4492;48.736;9.092;2023-03-17T06:43:44;3.50;;;2.33;;
8913;SDS011;4492;48.736;9.092;2023-03-17T06:46:09;3.87;;;2.40;;
8913;SDS011;4492;48.736;9.092;2023-03-17T06:48:35;4.53;;;2.83;;
8913;SDS011;4492;48.736;9.092;2023-03-17T06:51:00;3.47;;;2.30;;
8913;SDS011;4492;48.736;9.092;2023-03-17T06:53:26;4.27;;;2.17;;
8913;SDS011;4492;48.736;9.092;2023-03-17T06:55:52;2.00;;;1.80;;
8913;SDS011;4492;48.736;9.092;2023-03-17T06:58:17;2.67;;;1.57;;
8913;SDS011;4492;48.736;9.092;2023-03-17T07:00:44;4.20;;;2.40;;
8913;SDS011;4492;48.736;9.092;2023-03-17T07:03:11;2.63;;;1.90;;
8913;SDS011;4492;48.736;9.092;2023-03-17T07:05:36;3.33;;;1.97;;
8913;SDS011;4492;48.736;9.092;2023-03-17T07:08:03;1.80;;;1.67;;
8913;SDS011;4492;48.736;9.092;2023-03-17T07:10:29;3.17;;;1.80;;
8913;SDS011;4492;48.736;9.092;2023-03-17T07:12:55;1.97;;;1.30;;
8913;SDS011;4492;48.736;9.092;2023-03-17T07:15:21;2.30;;;1.97;;
8913;SDS011;4492;48.736;9.092;2023-03-17T07:17:46;2.20;;;2.00;;
8913;SDS011;4492;48.736;9.092;2023-03-17T07:20:12;4.63;;;2.70;;
8913;SDS011;4492;48.736;9.092;2023-03-17T07:22:38;5.40;;;2.70;;
8913;SDS011;4492;48.736;9.092;2023-03-17T07:25:04;5.97;;;2.70;;
8913;SDS011;4492;48.736;9.092;2023-03-17T07:27:30;5.87;;;2.30;;
8913;SDS011;4492;48.736;9.092;2023-03-17T07:29:56;3.33;;;2.13;;
8913;SDS011;4492;48.736;9.092;2023-03-17T07:32:21;2.20;;;2.00;;
8913;SDS011;4492;48.736;9.092;2023-03-17T07:34:47;3.90;;;1.60;;
8913;SDS011;4492;48.736;9.092;2023-03-17T07:37:12;3.03;;;1.50;;
8913;SDS011;4492;48.736;9.092;2023-03-17T07:39:38;3.80;;;1.90;;
8913;SDS011;4492;48.736;9.092;2023-03-17T07:42:03;4.53;;;1.77;;
8913;SDS011;4492;48.736;9.092;2023-03-17T07:44:29;1.70;;;1.43;;
8913;SDS011;4492;48.736;9.092;2023-03-17T07:46:56;3.27;;;1.80;;
8913;SDS011;4492;48.736;9.092;2023-03-17T07:49:22;3.17;;;1.70;;
8913;SDS011;4492;48.736;9.092;2023-03-17T07:51:47;1.97;;;1.77;;
8913;SDS011;4492;48.736;9.092;2023-03-17T07:54:13;3.00;;;2.00;;
8913;SDS011;4492;48.736;9.092;2023-03-17T07:56:39;2.83;;;1.87;;
8913;SDS011;4492;48.736;9.092;2023-03-17T07:59:06;2.93;;;1.77;;
8913;SDS011;4492;48.736;9.092;2023-03-17T08:01:33;2.43;;;1.90;;
8913;SDS011;4492;48.736;9.092;2023-03-17T08:03:59;2.63;;;1.77;;
8913;SDS011;4492;48.736;9.092;2023-03-17T08:06:25;2.07;;;1.23;;
8913;SDS011;4492;48.736;9.092;2023-03-17T08:08:51;4.50;;;2.10;;
8913;SDS011;4492;48.736;9.092;2023-03-17T08:11:20;3.73;;;1.70;;
8913;SDS011;4492;48.736;9.092;2023-03-17T08:13:47;2.67;;;1.73;;
8913;SDS011;4492;48.736;9.092;2023-03-17T08:16:13;1.50;;;1.40;;
8913;SDS011;4492;48.736;9.092;2023-03-17T08:18:39;1.83;;;1.20;;
8913;SDS011;4492;48.736;9.092;2023-03-17T08:21:05;1.57;;;1.10;;
8913;SDS011;4492;48.736;9.092;2023-03-17T08:23:31;1.27;;;0.80;;
8913;SDS011;4492;48.736;9.092;2023-03-17T08:25:57;1.93;;;1.03;;
8913;SDS011;4492;48.736;9.092;2023-03-17T08:28:27;1.23;;;0.70;;
8913;SDS011;4492;48.736;9.092;2023-03-17T08:30:53;0.93;;;0.90;;
8913;SDS011;4492;48.736;9.092;2023-03-17T08:33:20;1.37;;;0.80;;
8913;SDS011;4492;48.736;9.092;2023-03-17T08:35:46;2.23;;;1.10;;
8913;SDS011;4492;48.736;9.092;2023-03-17T08:38:11;2.70;;;1.17;;
8913;SDS011;4492;48.736;9.092;2023-03-17T08:40:37;1.40;;;0.70;;
8913;SDS011;4492;48.736;9.092;2023-03-17T08:43:03;1.10;;;1.00;;
8913;SDS011;4492;48.736;9.092;2023-03-17T08:45:30;1.87;;;1.10;;
8913;SDS011;4492;48.736;9.092;2023-03-17T08:47:55;1.37;;;1.00;;
8913;SDS011;4492;48.736;9.092;2023-03-17T08:50:21;1.50;;;0.77;;
8913;SDS011;4492;48.736;9.092;2023-03-17T08:52:48;2.13;;;0.80;;
8913;SDS011;4492;48.736;9.092;2023-03-17T08:55:16;0.70;;;0.70;;
8913;SDS011;4492;48.736;9.092;2023-03-17T08:57:42;0.90;;;0.90;;
8913;SDS011;4492;48.736;9.092;2023-03-17T09:00:09;0.80;;;0.80;;
8913;SDS011;4492;48.736;9.092;2023-03-17T09:02:37;1.67;;;1.23;;
8913;SDS011;4492;48.736;9.092;2023-03-17T09:05:04;1.83;;;1.00;;
8913;SDS011;4492;48.736;9.092;2023-03-17T09:07:31;1.10;;;1.00;;
8913;SDS011;4492;48.736;9.092;2023-03-17T09:09:57;1.10;;;1.00;;
8913;SDS011;4492;48.736;9.092;2023-03-17T09:12:23;1.33;;;1.10;;
8913;SDS011;4492;48.736;9.092;2023-03-17T09:14:49;1.90;;;1.07;;
8913;SDS011;4492;48.736;9.092;2023-03-17T09:17:14;1.93;;;1.10;;
8913;SDS011;4492;48.736;9.092;2023-03-17T09:19:40;2.10;;;1.17;;
8913;SDS011;4492;48.736;9.092;2023-03-17T09:22:06;1.30;;;1.20;;
8913;SDS011;4492;48.736;9.092;2023-03-17T09:24:35;2.90;;;1.37;;
8913;SDS011;4492;48.736;9.092;2023-03-17T09:27:01;1.37;;;1.20;;
8913;SDS011;4492;48.736;9.092;2023-03-17T09:29:26;3.77;;;1.07;;
8913;SDS011;4492;48.736;9.092;2023-03-17T09:31:53;1.00;;;0.90;;
8913;SDS011;4492;48.736;9.092;2023-03-17T09:34:20;2.57;;;1.10;;
8913;SDS011;4492;48.736;9.092;2023-03-17T09:36:46;1.30;;;1.10;;
8913;SDS011;4492;48.736;9.092;2023-03-17T09:39:12;2.50;;;1.30;;
8913;SDS011;4492;48.736;9.092;2023-03-17T09:41:50;2.30;;;1.00;;
8913;SDS011;4492;48.736;9.092;2023-03-17T09:47:50;1.33;;;1.00;;
8913;SDS011;4492;48.736;9.092;2023-03-17T09:50:46;2.13;;;1.43;;
8913;SDS011;4492;48.736;9.092;2023-03-17T09:53:26;2.70;;;1.10;;
8913;SDS011;4492;48.736;9.092;2023-03-17T09:55:54;1.60;;;1.27;;
8913;SDS011;4492;48.736;9.092;2023-03-17T09:58:30;3.23;;;1.20;;
8913;SDS011;4492;48.736;9.092;2023-03-17T10:00:58;2.40;;;1.40;;
8913;SDS011;4492;48.736;9.092;2023-03-17T10:03:24;2.60;;;1.30;;
8913;SDS011;4492;48.736;9.092;2023-03-17T10:05:51;1.53;;;1.23;;
8913;SDS011;4492;48.736;9.092;2023-03-17T10:08:19;1.03;;;0.93;;
8913;SDS011;4492;48.736;9.092;2023-03-17T10:11:04;1.00;;;0.90;;
8913;SDS011;4492;48.736;9.092;2023-03-17T10:16:18;1.73;;;0.90;;
8913;SDS011;4492;48.736;9.092;2023-03-17T10:18:55;2.63;;;1.23;;
8913;SDS011;4492;48.736;9.092;2023-03-17T10:21:31;4.23;;;1.30;;
8913;SDS011;4492;48.736;9.092;2023-03-17T10:23:58;2.13;;;1.37;;
8913;SDS011;4492;48.736;9.092;2023-03-17T10:26:33;1.10;;;0.90;;
8913;SDS011;4492;48.736;9.092;2023-03-17T10:29:10;4.03;;;1.37;;
8913;SDS011;4492;48.736;9.092;2023-03-17T10:31:39;4.70;;;1.20;;
8913;SDS011;4492;48.736;9.092;2023-03-17T10:34:12;4.13;;;1.40;;
8913;SDS011;4492;48.736;9.092;2023-03-17T10:36:44;1.93;;;1.50;;
8913;SDS011;4492;48.736;9.092;2023-03-17T10:39:19;1.80;;;1.70;;
8913;SDS011;4492;48.736;9.092;2023-03-17T10:41:57;2.63;;;1.30;;
8913;SDS011;4492;48.736;9.092;2023-03-17T10:44:38;1.40;;;1.20;;
8913;SDS011;4492;48.736;9.092;2023-03-17T10:47:34;2.17;;;1.47;;
8913;SDS011;4492;48.736;9.092;2023-03-17T10:50:10;1.20;;;1.10;;
8913;SDS011;4492;48.736;9.092;2023-03-17T10:52:57;1.87;;;1.10;;
8913;SDS011;4492;48.736;9.092;2023-03-17T10:55:26;1.60;;;1.47;;
8913;SDS011;4492;48.736;9.092;2023-03-17T11:00:32;1.70;;;1.20;;
8913;SDS011;4492;48.736;9.092;2023-03-17T11:03:01;3.17;;;1.90;;
8913;SDS011;4492;48.736;9.092;2023-03-17T11:06:11;2.67;;;1.40;;
8913;SDS011;4492;48.736;9.092;2023-03-17T11:11:26;2.20;;;1.10;;
8913;SDS011;4492;48.736;9.092;2023-03-17T11:14:00;6.20;;;1.33;;
8913;SDS011;4492;48.736;9.092;2023-03-17T11:16:34;1.83;;;1.30;;
8913;SDS011;4492;48.736;9.092;2023-03-17T11:19:02;3.63;;;3.00;;
8913;SDS011;4492;48.736;9.092;2023-03-17T11:21:32;1.93;;;1.73;;
8913;SDS011;4492;48.736;9.092;2023-03-17T11:24:13;1.80;;;1.00;;
8913;SDS011;4492;48.736;9.092;2023-03-17T11:26:57;2.83;;;1.20;;
8913;SDS011;4492;48.736;9.092;2023-03-17T11:32:22;1.70;;;1.60;;
8913;SDS011;4492;48.736;9.092;2023-03-17T11:35:13;2.67;;;1.47;;
8913;SDS011;4492;48.736;9.092;2023-03-17T11:40:39;4.53;;;1.83;;
8913;SDS011;4492;48.736;9.092;2023-03-17T11:45:58;4.37;;;2.00;;
8913;SDS011;4492;48.736;9.092;2023-03-17T11:57:12;1.90;;;1.50;;
8913;SDS011;4492;48.736;9.092;2023-03-17T11:59:53;1.60;;;1.50;;
8913;SDS011;4492;48.736;9.092;2023-03-17T12:02:31;3.53;;;1.50;;
8913;SDS011;4492;48.736;9.092;2023-03-17T12:07:47;1.73;;;1.40;;
8913;SDS011;4492;48.736;9.092;2023-03-17T12:13:03;1.47;;;1.30;;
8913;SDS011;4492;48.736;9.092;2023-03-17T12:15:53;2.13;;;1.67;;
8913;SDS011;4492;48.736;9.092;2023-03-17T12:18:27;1.10;;;1.00;;
8913;SDS011;4492;48.736;9.092;2023-03-17T12:20:59;1.77;;;1.67;;
8913;SDS011;4492;48.736;9.092;2023-03-17T12:26:11;1.30;;;1.20;;
8913;SDS011;4492;48.736;9.092;2023-03-17T12:28:41;3.80;;;1.60;;
8913;SDS011;4492;48.736;9.092;2023-03-17T12:31:33;1.83;;;1.50;;
8913;SDS011;4492;48.736;9.092;2023-03-17T12:36:44;3.57;;;1.50;;
8913;SDS011;4492;48.736;9.092;2023-03-17T12:39:18;2.67;;;1.70;;
8913;SDS011;4492;48.736;9.092;2023-03-17T12:47:57;3.37;;;1.87;;
8913;SDS011;4492;48.736;9.092;2023-03-17T12:51:05;2.20;;;1.53;;
8913;SDS011;4492;48.736;9.092;2023-03-17T12:53:41;2.30;;;1.47;;
8913;SDS011;4492;48.736;9.092;2023-03-17T12:56:21;2.37;;;1.13;;
8913;SDS011;4492;48.736;9.092;2023-03-17T12:58:52;1.87;;;1.50;;
8913;SDS011;4492;48.736;9.092;2023-03-17T13:01:30;2.67;;;1.37;;
8913;SDS011;4492;48.736;9.092;2023-03-17T13:11:55;2.53;;;1.60;;
8913;SDS011;4492;48.736;9.092;2023-03-17T13:20:34;2.00;;;1.60;;
8913;SDS011;4492;48.736;9.092;2023-03-17T13:41:16;3.83;;;1.20;;
8913;SDS011;4492;48.736;9.092;2023-03-17T13:51:51;2.40;;;2.20;;
8913;SDS011;4492;48.736;9.092;2023-03-17T13:54:41;1.63;;;1.37;;
8913;SDS011;4492;48.736;9.092;2023-03-17T14:02:46;1.43;;;1.33;;
8913;SDS011;4492;48.736;9.092;2023-03-17T14:05:21;2.80;;;1.33;;
8913;SDS011;4492;48.736;9.092;2023-03-17T14:07:55;2.27;;;1.60;;
8913;SDS011;4492;48.736;9.092;2023-03-17T14:10:51;2.80;;;1.80;;
8913;SDS011;4492;48.736;9.092;2023-03-17T14:16:34;1.93;;;1.80;;
8913;SDS011;4492;48.736;9.092;2023-03-17T14:19:17;2.20;;;1.73;;
8913;SDS011;4492;48.736;9.092;2023-03-17T14:21:48;2.87;;;1.97;;
8913;SDS011;4492;48.736;9.092;2023-03-17T14:26:49;1.57;;;1.30;;
8913;SDS011;4492;48.736;9.092;2023-03-17T14:29:17;2.30;;;2.10;;
8913;SDS011;4492;48.736;9.092;2023-03-17T14:31:57;2.00;;;1.80;;
8913;SDS011;4492;48.736;9.092;2023-03-17T14:34:40;1.40;;;1.30;;
8913;SDS011;4492;48.736;9.092;2023-03-17T14:37:08;2.07;;;1.30;;
8913;SDS011;4492;48.736;9.092;2023-03-17T14:39:37;1.53;;;1.30;;
8913;SDS011;4492;48.736;9.092;2023-03-17T14:42:51;1.47;;;1.30;;
8913;SDS011;4492;48.736;9.092;2023-03-17T14:45:20;2.33;;;1.33;;
8913;SDS011;4492;48.736;9.092;2023-03-17T14:47:51;4.33;;;1.43;;
8913;SDS011;4492;48.736;9.092;2023-03-17T14:50:30;6.10;;;1.40;;
8913;SDS011;4492;48.736;9.092;2023-03-17T14:52:57;1.67;;;1.30;;
8913;SDS011;4492;48.736;9.092;2023-03-17T14:55:27;1.80;;;1.23;;
8913;SDS011;4492;48.736;9.092;2023-03-17T14:58:05;3.07;;;1.23;;
8913;SDS011;4492;48.736;9.092;2023-03-17T15:00:41;2.47;;;1.50;;
8913;SDS011;4492;48.736;9.092;2023-03-17T15:03:20;2.77;;;1.60;;
8913;SDS011;4492;48.736;9.092;2023-03-17T15:05:48;6.00;;;1.40;;
8913;SDS011;4492;48.736;9.092;2023-03-17T15:11:26;1.67;;;1.27;;
8913;SDS011;4492;48.736;9.092;2023-03-17T15:16:53;2.10;;;1.30;;
8913;SDS011;4492;48.736;9.092;2023-03-17T15:21:48;4.47;;;1.40;;
8913;SDS011;4492;48.736;9.092;2023-03-17T15:26:45;2.40;;;2.10;;
8913;SDS011;4492;48.736;9.092;2023-03-17T15:29:11;2.43;;;1.70;;
8913;SDS011;4492;48.736;9.092;2023-03-17T15:31:36;2.77;;;1.70;;
8913;SDS011;4492;48.736;9.092;2023-03-17T15:34:02;3.87;;;1.40;;
8913;SDS011;4492;48.736;9.092;2023-03-17T15:36:27;2.43;;;2.10;;
8913;SDS011;4492;48.736;9.092;2023-03-17T15:38:53;4.13;;;1.90;;
8913;SDS011;4492;48.736;9.092;2023-03-17T15:41:19;5.43;;;3.77;;
8913;SDS011;4492;48.736;9.092;2023-03-17T15:43:44;10.77;;;7.17;;
8913;SDS011;4492;48.736;9.092;2023-03-17T15:46:20;2.67;;;1.93;;
8913;SDS011;4492;48.736;9.092;2023-03-17T15:48:49;1.73;;;1.60;;
8913;SDS011;4492;48.736;9.092;2023-03-17T15:51:15;2.60;;;1.57;;
8913;SDS011;4492;48.736;9.092;2023-03-17T15:53:41;3.10;;;2.27;;
8913;SDS011;4492;48.736;9.092;2023-03-17T15:56:11;1.60;;;1.50;;
8913;SDS011;4492;48.736;9.092;2023-03-17T15:58:40;2.03;;;1.80;;
8913;SDS011;4492;48.736;9.092;2023-03-17T16:01:07;1.27;;;1.10;;
8913;SDS011;4492;48.736;9.092;2023-03-17T16:03:34;2.43;;;1.60;;
8913;SDS011;4492;48.736;9.092;2023-03-17T16:06:01;1.30;;;1.17;;
8913;SDS011;4492;48.736;9.092;2023-03-17T16:08:31;7.33;;;2.07;;
8913;SDS011;4492;48.736;9.092;2023-03-17T16:10:57;2.80;;;2.60;;
8913;SDS011;4492;48.736;9.092;2023-03-17T16:13:23;16.67;;;12.40;;
8913;SDS011;4492;48.736;9.092;2023-03-17T16:15:52;17.80;;;11.07;;
8913;SDS011;4492;48.736;9.092;2023-03-17T16:18:21;13.80;;;9.93;;
8913;SDS011;4492;48.736;9.092;2023-03-17T16:21:01;7.80;;;7.07;;
8913;SDS011;4492;48.736;9.092;2023-03-17T16:23:29;6.67;;;5.70;;
8913;SDS011;4492;48.736;9.092;2023-03-17T16:25:56;8.73;;;4.90;;
8913;SDS011;4492;48.736;9.092;2023-03-17T16:28:24;5.43;;;3.97;;
8913;SDS011;4492;48.736;9.092;2023-03-17T16:30:51;3.83;;;3.40;;
8913;SDS011;4492;48.736;9.092;2023-03-17T16:33:28;4.20;;;3.80;;
8913;SDS011;4492;48.736;9.092;2023-03-17T16:35:57;3.50;;;2.60;;
8913;SDS011;4492;48.736;9.092;2023-03-17T16:38:24;3.80;;;2.27;;
8913;SDS011;4492;48.736;9.092;2023-03-17T16:40:52;3.40;;;2.33;;
8913;SDS011;4492;48.736;9.092;2023-03-17T16:43:21;3.47;;;1.83;;
8913;SDS011;4492;48.736;9.092;2023-03-17T16:45:51;2.60;;;2.00;;
8913;SDS011;4492;48.736;9.092;2023-03-17T16:48:24;5.13;;;1.60;;
8913;SDS011;4492;48.736;9.092;2023-03-17T16:50:50;2.23;;;1.90;;
8913;SDS011;4492;48.736;9.092;2023-03-17T16:53:16;2.33;;;1.90;;
8913;SDS011;4492;48.736;9.092;2023-03-17T16:55:43;3.93;;;2.00;;
8913;SDS011;4492;48.736;9.092;2023-03-17T16:58:14;2.27;;;1.60;;
8913;SDS011;4492;48.736;9.092;2023-03-17T17:00:44;2.70;;;2.00;;
8913;SDS011;4492;48.736;9.092;2023-03-17T17:03:11;2.60;;;1.73;;
8913;SDS011;4492;48.736;9.092;2023-03-17T17:05:38;3.00;;;1.50;;
8913;SDS011;4492;48.736;9.092;2023-03-17T17:08:04;1.73;;;1.50;;
8913;SDS011;4492;48.736;9.092;2023-03-17T17:10:30;1.67;;;1.33;;
8913;SDS011;4492;48.736;9.092;2023-03-17T17:12:58;2.03;;;1.70;;
8913;SDS011;4492;48.736;9.092;2023-03-17T17:15:23;5.77;;;1.93;;
8913;SDS011;4492;48.736;9.092;2023-03-17T17:17:51;1.63;;;1.50;;
8913;SDS011;4492;48.736;9.092;2023-03-17T17:20:30;6.03;;;2.03;;
8913;SDS011;4492;48.736;9.092;2023-03-17T17:22:58;3.30;;;1.63;;